This is the latest recevied weather packets stored in our database for station/object BV3BA-13. If no packets are shown the sender has not sent any weather packets the latest 10 day(s).
| Time | Temp. | Humidity | Pressure | Rain* | Wind** | Luminosity | Snow |
|---|---|---|---|---|---|---|---|
| 1777727823 | 25° C | 75% | 1007.9 hPa | 0 mm | - | - | - |
| 1777727223 | 25° C | 76% | 1007.9 hPa | 0 mm | - | - | - |
| 1777726623 | 25° C | 75% | 1007.7 hPa | 0 mm | - | - | - |
| 1777726023 | 25° C | 74% | 1007.7 hPa | 0 mm | - | - | - |
| 1777725423 | 25° C | 73% | 1007.7 hPa | 0 mm | - | - | - |
| 1777724824 | 25° C | 74% | 1007.7 hPa | 0 mm | - | - | - |
| 1777724223 | 25° C | 74% | 1007.6 hPa | 0 mm | - | - | - |
| 1777723624 | 25° C | 74% | 1007.6 hPa | 0 mm | - | - | - |
| 1777723024 | 25.56° C | 72% | 1007.5 hPa | 0 mm | - | - | - |
| 1777722424 | 25° C | 75% | 1007.4 hPa | 0 mm | - | - | - |
| 1777721824 | 25.56° C | 73% | 1007.2 hPa | 0 mm | - | - | - |
| 1777721224 | 25.56° C | 72% | 1007 hPa | 0 mm | - | - | - |
| 1777720624 | 25.56° C | 71% | 1006.8 hPa | 0 mm | - | - | - |
| 1777720024 | 25° C | 73% | 1006.7 hPa | 0 mm | - | - | - |
| 1777719424 | 25.56° C | 72% | 1006.7 hPa | 0 mm | - | - | - |
| 1777718824 | 25.56° C | 72% | 1006.7 hPa | 0 mm | - | - | - |
| 1777718223 | 26.11° C | 71% | 1006.5 hPa | 0 mm | - | - | - |
| 1777717624 | 26.11° C | 70% | 1006.4 hPa | 0 mm | - | - | - |
| 1777717024 | 26.11° C | 69% | 1006.4 hPa | 0 mm | - | - | - |
| 1777716424 | 26.11° C | 70% | 1006.4 hPa | 0 mm | - | - | - |
| 1777715823 | 26.11° C | 70% | 1006.3 hPa | 0 mm | - | - | - |
| 1777715224 | 26.11° C | 69% | 1006.3 hPa | 0 mm | - | - | - |
| 1777714624 | 26.67° C | 69% | 1006.3 hPa | 0 mm | - | - | - |
| 1777714023 | 26.11° C | 68% | 1006.3 hPa | 0 mm | - | - | - |
| 1777713424 | 26.67° C | 68% | 1006.4 hPa | 0 mm | - | - | - |
* Rain latest hour (hover to see other rain measurements)
** Current wind speed in m/s (hover to see current wind gust speed)